Flight Track Log - Related Links

Times and Time Zones

All times are in EST time to prevent confusion due to time zone crossing. See the N8887B flight status page for this flight to view local times or setup timezone preferences in your user account.

Time Position Orientation Groundspeed Altitude Reporting Facility
EST Latitude Longitude Course Direction KTS MPH feet Rate Location/Type
Sun 12:33:20 PM 41.9167 -88.2833 279° West 118 136 2,900  Level Chicago TRACON
Sun 12:34:20 PM 41.9167 -88.3333 270° West 142 163 4,000 841 Climbing Chicago TRACON
Sun 12:35:07 PM 41.9044 -88.3769 249° West 174 200 4,400 1,211 Climbing Chicago Center
Sun 12:36:09 PM 41.8969 -88.4317 260° West 154 177 6,200 1,694 Climbing Chicago Center
Sun 12:37:11 PM 41.8939 -88.4839 266° West 133 153 7,900 1,707 Climbing Chicago Center
Sun 12:38:00 PM 41.9405 -88.5974 279° West  Level FlightAware Approximate
Sun 12:38:12 PM 41.8931 -88.5331 269° West 130 150 9,700  Level Chicago Center
Sun 12:39:14 PM 41.8936 -88.5792 271° West 118 136 11,400 1,500 Climbing Chicago Center
Sun 12:40:16 PM 41.8917 -88.6219 267° West 118 136 12,800 1,306 Climbing Chicago Center
Sun 12:41:18 PM 41.8922 -88.6644 271° West 116 133 14,100 1,403 Climbing Chicago Center
Sun 12:42:20 PM 41.8933 -88.7083 272° West 111 128 15,700 919 Climbing Chicago Center
Sun 12:43:22 PM 41.8958 -88.7567 274° West 132 152 16,000 145 Climbing Chicago Center
Sun 12:44:24 PM 41.8975 -88.8233 272° West 165 190 16,000  Level Chicago Center
Sun 12:45:26 PM 41.9167 -88.8744 297° West 192 221 16,000  Level Chicago Center
Sun 12:46:28 PM 41.9625 -88.9150 327° Northwest 196 226 16,000  Level Chicago Center
Sun 12:47:30 PM 41.9936 -88.9681 308° West 184 212 16,000  Level Chicago Center
Sun 12:48:32 PM 42.0350 -89.0300 312° West 185 213 16,000  Level Chicago Center
Sun 12:49:34 PM 42.0689 -89.0772 314° West 188 216 16,000  Level Chicago Center
Sun 12:50:36 PM 42.1025 -89.1267 313° West 183 211 16,000  Level Chicago Center
Sun 12:51:38 PM 42.1383 -89.1783 313° West 186 214 16,000  Level Chicago Center
Sun 12:52:40 PM 42.1764 -89.2281 316° Northwest 189 217 16,000  Level Chicago Center
Sun 12:53:42 PM 42.2192 -89.2886 314° West 187 215 16,000  Level Chicago Center
Sun 12:54:44 PM 42.2525 -89.3364 313° West 180 207 16,000  Level Chicago Center
Sun 12:55:46 PM 42.2872 -89.3844 314° West 180 207 16,000  Level Chicago Center
Sun 12:56:48 PM 42.3231 -89.4336 315° West 184 212 16,000  Level Chicago Center
Sun 12:57:50 PM 42.3586 -89.4814 315° West 181 208 16,000  Level Chicago Center
Sun 12:58:52 PM 42.3936 -89.5314 313° West 182 209 16,000  Level Chicago Center
Sun 12:59:54 PM 42.4361 -89.5919 314° West 186 214 16,000  Level Chicago Center
Sun 01:00:56 PM 42.4722 -89.6422 314° West 186 214 16,000  Level Chicago Center
Sun 01:01:58 PM 42.5072 -89.6919 314° West 184 212 16,000  Level Chicago Center
Sun 01:03:00 PM 42.5444 -89.7428 315° West 189 217 16,000  Level Chicago Center
Sun 01:04:02 PM 42.5769 -89.7897 313° West 176 203 16,000  Level Chicago Center
Sun 01:05:04 PM 42.6125 -89.8403 314° West 183 211 16,000  Level Chicago Center
Sun 01:06:06 PM 42.6547 -89.8967 316° Northwest 180 207 16,000  Level Chicago Center
Sun 01:07:07 PM 42.6842 -89.9403 313° West 182 209 16,000  Level Chicago Center
Sun 01:08:09 PM 42.7286 -90.0003 315° West 188 216 16,000  Level Chicago Center
Sun 01:09:12 PM 42.7631 -90.0497 314° West 182 209 16,000  Level Chicago Center
Sun 01:10:13 PM 42.7967 -90.0986 313° West 181 208 16,000  Level Chicago Center
Sun 01:11:15 PM 42.8314 -90.1478 314° West 180 207 16,000  Level Chicago Center
Sun 01:12:17 PM 42.8664 -90.1958 315° West 179 206 16,000  Level Chicago Center
Sun 01:13:19 PM 42.9003 -90.2453 313° West 179 206 16,000  Level Chicago Center
Sun 01:14:21 PM 42.9389 -90.3044 312° West 177 204 16,000  Level Chicago Center
Sun 01:15:23 PM 42.9722 -90.3550 312° West 181 208 16,000  Level Chicago Center
Sun 01:16:25 PM 43.0078 -90.4044 315° West 182 209 16,000  Level Chicago Center
Sun 01:17:26 PM 43.0431 -90.4547 314° West 184 212 16,000  Level Chicago Center
Sun 01:18:28 PM 43.0783 -90.5053 314° West 184 212 16,000  Level Chicago Center
Sun 01:19:30 PM 43.1214 -90.5675 313° West 187 215 16,000  Level Chicago Center
Sun 01:20:32 PM 43.1536 -90.6136 314° West 179 206 16,000  Level Chicago Center
Sun 01:21:34 PM 43.1889 -90.6658 313° West 187 215 16,000  Level Chicago Center
Sun 01:22:36 PM 43.2272 -90.7183 315° West 194 223 16,000  Level Chicago Center
Sun 01:23:38 PM 43.2617 -90.7683 313° West 188 216 16,000  Level Chicago Center
Sun 01:24:40 PM 43.2964 -90.8192 313° West 186 214 16,000  Level Chicago Center
Sun 01:25:42 PM 43.3392 -90.8814 313° West 187 215 16,000  Level Chicago Center
Sun 01:26:44 PM 43.3742 -90.9347 312° West 189 217 16,000  Level Chicago Center
Sun 01:27:46 PM 43.4100 -90.9889 312° West 192 221 16,000  Level Chicago Center
Sun 01:28:47 PM 43.4483 -91.0422 315° West 195 224 16,000  Level Chicago Center
Sun 01:29:49 PM 43.4861 -91.0983 313° West 199 229 16,000  Level Chicago Center
Sun 01:30:51 PM 43.5319 -91.1639 314° West 200 230 16,000  Level Chicago Center
Sun 01:31:53 PM 43.5689 -91.2214 312° West 201 231 16,000  Level Chicago Center
Sun 01:32:55 PM 43.6069 -91.2756 314° West 201 231 16,000  Level Chicago Center
Sun 01:34:04 PM 43.6517 -91.3408 313° West 197 227 16,000  Level Minneapolis Center
Sun 01:35:06 PM 43.6892 -91.3975 312° West 197 227 16,000  Level Minneapolis Center
Sun 01:36:08 PM 43.7256 -91.4544 311° West 198 228 16,000  Level Minneapolis Center
Sun 01:37:10 PM 43.7633 -91.5092 314° West 198 228 16,000  Level Minneapolis Center
Sun 01:38:12 PM 43.8003 -91.5642 313° West 198 228 16,000  Level Minneapolis Center
Sun 01:39:13 PM 43.8444 -91.6306 313° West 197 227 16,000  Level Minneapolis Center
Sun 01:40:15 PM 43.8822 -91.6864 313° West 197 227 16,000  Level Minneapolis Center
Sun 01:41:17 PM 43.9197 -91.7408 314° West 196 226 16,000  Level Minneapolis Center
Sun 01:42:19 PM 43.9558 -91.7975 312° West 196 226 16,000  Level Minneapolis Center
Sun 01:43:21 PM 43.9936 -91.8517 314° West 196 226 16,000  Level Minneapolis Center
Sun 01:44:23 PM 44.0292 -91.9089 311° West 196 226 16,000  Level Minneapolis Center
Sun 01:45:25 PM 44.0669 -91.9633 314° West 196 226 16,000  Level Minneapolis Center
Sun 01:46:26 PM 44.1094 -92.0328 310° West 196 226 16,000  Level Minneapolis Center
Sun 01:47:28 PM 44.1469 -92.0867 314° West 195 224 16,000  Level Minneapolis Center
Sun 01:48:30 PM 44.1819 -92.1453 310° West 196 226 16,000  Level Minneapolis Center
Sun 01:49:32 PM 44.2197 -92.2000 314° West 196 226 16,000  Level Minneapolis Center
Sun 01:50:34 PM 44.2564 -92.2572 312° West 196 226 16,000  Level Minneapolis Center
Sun 01:51:36 PM 44.2931 -92.3122 313° West 196 226 16,000  Level Minneapolis Center
Sun 01:52:38 PM 44.3364 -92.3808 311° West 196 226 16,000  Level Minneapolis Center
Sun 01:53:40 PM 44.3742 -92.4353 314° West 196 226 16,000  Level Minneapolis Center
Sun 01:54:42 PM 44.4117 -92.4931 312° West 198 228 16,000  Level Minneapolis Center
Sun 01:55:44 PM 44.4483 -92.5489 313° West 198 228 16,000  Level Minneapolis Center
Sun 01:56:45 PM 44.4850 -92.6081 311° West 201 231 16,000  Level Minneapolis Center
Sun 01:57:47 PM 44.5214 -92.6639 312° West 199 229 16,000  Level Minneapolis Center
Sun 01:58:49 PM 44.5653 -92.7319 312° West 198 228 16,000  Level Minneapolis Center
Sun 01:59:51 PM 44.6028 -92.7894 313° West 200 230 16,000  Level Minneapolis Center
Sun 02:00:53 PM 44.6378 -92.8444 312° West 190 219 16,000  Level Minneapolis Center
Sun 02:01:55 PM 44.6742 -92.9011 312° West 192 221 16,000  Level Minneapolis Center
Sun 02:02:57 PM 44.7106 -92.9578 312° West 193 222 16,000  Level Minneapolis Center
Sun 02:03:58 PM 44.7464 -93.0147 312° West 194 223 16,000  Level Minneapolis Center
Sun 02:05:00 PM 44.7889 -93.0811 312° West 194 223 16,000  Level Minneapolis Center
Sun 02:06:02 PM 44.8247 -93.1367 312° West 194 223 16,000  Level Minneapolis Center
Sun 02:07:04 PM 44.8608 -93.1936 312° West 196 226 16,000  Level Minneapolis Center
Sun 02:08:06 PM 44.8939 -93.2500 310° West 194 223 16,000  Level Minneapolis Center
Sun 02:09:08 PM 44.9306 -93.3050 313° West 193 222 16,000  Level Minneapolis Center
Sun 02:10:10 PM 44.9733 -93.3739 311° West 195 224 16,000  Level Minneapolis Center
Sun 02:11:12 PM 45.0100 -93.4319 312° West 195 224 16,000  Level Minneapolis Center
Sun 02:12:14 PM 45.0453 -93.4881 312° West 195 224 16,000  Level Minneapolis Center
Sun 02:13:15 PM 45.0814 -93.5461 311° West 195 224 16,000  Level Minneapolis Center
Sun 02:14:17 PM 45.1178 -93.6028 312° West 195 224 16,000  Level Minneapolis Center
Sun 02:15:19 PM 45.1531 -93.6606 311° West 195 224 16,000  Level Minneapolis Center
Sun 02:16:21 PM 45.1956 -93.7308 311° West 195 224 16,000  Level Minneapolis Center
Sun 02:17:23 PM 45.2306 -93.7883 311° West 195 224 16,000  Level Minneapolis Center
Sun 02:18:24 PM 45.2667 -93.8458 312° West 195 224 16,000  Level Minneapolis Center
Sun 02:19:26 PM 45.3031 -93.9033 312° West 195 224 16,000  Level Minneapolis Center
Sun 02:20:28 PM 45.3383 -93.9617 311° West 195 224 16,000  Level Minneapolis Center
Sun 02:21:30 PM 45.3744 -94.0219 310° West 200 230 16,000  Level Minneapolis Center
Sun 02:22:31 PM 45.4175 -94.0919 311° West 199 229 16,000  Level Minneapolis Center
Sun 02:23:33 PM 45.4542 -94.1519 311° West 201 231 16,000  Level Minneapolis Center
Sun 02:24:35 PM 45.4911 -94.2119 311° West 202 232 16,000  Level Minneapolis Center
Sun 02:25:37 PM 45.5278 -94.2711 312° West 201 231 16,000  Level Minneapolis Center
Sun 02:26:38 PM 45.5633 -94.3325 310° West 202 232 16,000  Level Minneapolis Center
Sun 02:27:40 PM 45.5992 -94.3936 310° West 202 232 16,000  Level Minneapolis Center
Sun 02:28:42 PM 45.6372 -94.4533 312° West 202 232 16,000  Level Minneapolis Center
Sun 02:29:44 PM 45.6811 -94.5256 311° West 202 232 16,000  Level Minneapolis Center
Sun 02:30:46 PM 45.7169 -94.5881 309° West 202 232 16,000  Level Minneapolis Center
Sun 02:31:47 PM 45.7542 -94.6503 311° West 202 232 16,000  Level Minneapolis Center
Sun 02:32:49 PM 45.7908 -94.7119 310° West 203 234 16,000  Level Minneapolis Center
Sun 02:33:51 PM 45.8275 -94.7742 310° West 203 234 16,000  Level Minneapolis Center
Sun 02:34:53 PM 45.8639 -94.8353 311° West 203 234 16,000  Level Minneapolis Center
Sun 02:35:55 PM 45.9011 -94.8992 310° West 204 235 16,000  Level Minneapolis Center
Sun 02:36:56 PM 45.9464 -94.9731 311° West 204 235 16,000  Level Minneapolis Center
Sun 02:37:58 PM 45.9828 -95.0367 309° West 205 236 16,000  Level Minneapolis Center
Sun 02:39:00 PM 46.0225 -95.1025 311° West 205 236 16,000  Level Minneapolis Center
Sun 02:40:02 PM 46.0603 -95.1664 310° West 207 238 16,000  Level Minneapolis Center
Sun 02:41:04 PM 46.0975 -95.2308 310° West 208 239 16,000  Level Minneapolis Center
Sun 02:42:06 PM 46.1344 -95.2931 311° West 208 239 16,000  Level Minneapolis Center
Sun 02:43:08 PM 46.1722 -95.3578 310° West 209 241 16,000  Level Minneapolis Center
Sun 02:44:09 PM 46.2108 -95.4244 310° West 209 241 16,000  Level Minneapolis Center
Sun 02:45:11 PM 46.2542 -95.4997 310° West 209 241 16,000  Level Minneapolis Center
Sun 02:46:13 PM 46.2917 -95.5642 310° West 209 241 16,000  Level Minneapolis Center
Sun 02:47:15 PM 46.3281 -95.6275 310° West 209 241 16,000  Level Minneapolis Center
Sun 02:48:17 PM 46.3661 -95.6911 311° West 209 241 16,000  Level Minneapolis Center
Sun 02:49:19 PM 46.4028 -95.7553 310° West 209 241 16,000  Level Minneapolis Center
Sun 02:50:20 PM 46.4403 -95.8206 310° West 209 241 16,000  Level Minneapolis Center
Sun 02:51:22 PM 46.4853 -95.8994 310° West 209 241 16,000  Level Minneapolis Center
Sun 02:52:24 PM 46.5211 -95.9628 309° West 210 242 16,000  Level Minneapolis Center
Sun 02:53:26 PM 46.5603 -96.0300 310° West 209 241 16,000  Level Minneapolis Center
Sun 02:54:28 PM 46.5986 -96.0989 309° West 209 241 16,000  Level Minneapolis Center
Sun 02:55:29 PM 46.6375 -96.1664 310° West 209 241 16,000  Level Minneapolis Center
Sun 02:56:31 PM 46.6764 -96.2350 310° West 209 241 16,000  Level Minneapolis Center
Sun 02:57:33 PM 46.7147 -96.3036 309° West 210 242 16,000  Level Minneapolis Center
Sun 02:58:35 PM 46.7506 -96.3669 310° West 210 242 16,000  Level Minneapolis Center
Sun 02:59:36 PM 46.7892 -96.4356 309° West 210 242 16,000  Level Minneapolis Center
Sun 03:00:38 PM 46.8275 -96.5047 309° West 210 242 16,000  Level Minneapolis Center
Sun 03:01:40 PM 46.8664 -96.5739 309° West 210 242 16,000  Level Minneapolis Center
Sun 03:02:42 PM 46.9042 -96.6436 308° West 210 242 16,000  Level Minneapolis Center
Sun 03:03:43 PM 46.9397 -96.7067 310° West 210 242 16,000  Level Minneapolis Center
Sun 03:04:45 PM 46.9767 -96.7756 308° West 208 239 16,000  Level Minneapolis Center
Sun 03:05:47 PM 47.0158 -96.8436 310° West 208 239 16,000  Level Minneapolis Center
Sun 03:06:49 PM 47.0556 -96.9139 310° West 210 242 16,000  Level Minneapolis Center
Sun 03:07:50 PM 47.0942 -96.9853 308° West 216 249 16,000  Level Minneapolis Center
Sun 03:08:52 PM 47.1333 -97.0550 310° West 214 246 16,000  Level Minneapolis Center
Sun 03:09:54 PM 47.1692 -97.1211 309° West 214 246 16,000  Level Minneapolis Center
Sun 03:10:55 PM 47.2083 -97.1917 309° West 214 246 16,000  Level Minneapolis Center
Sun 03:11:57 PM 47.2467 -97.2639 308° West 214 246 16,000  Level Minneapolis Center
Sun 03:12:58 PM 47.2853 -97.3353 309° West 214 246 16,000  Level Minneapolis Center
Sun 03:14:00 PM 47.3211 -97.4003 309° West 214 246 16,000  Level Minneapolis Center
Sun 03:15:01 PM 47.3592 -97.4706 309° West 214 246 16,000  Level Minneapolis Center
Sun 03:16:03 PM 47.3975 -97.5414 309° West 213 245 16,000  Level Minneapolis Center
Sun 03:17:05 PM 47.4356 -97.6117 309° West 212 244 16,000  Level Minneapolis Center
Sun 03:18:06 PM 47.4661 -97.6689 308° West 211 243 16,000  Level Minneapolis Center
Sun 03:19:08 PM 47.5103 -97.7553 307° West 218 251 16,000  Level Minneapolis Center
Sun 03:20:09 PM 47.5439 -97.8219 307° West 214 246 16,000  Level Minneapolis Center
Sun 03:21:11 PM 47.5764 -97.8853 307° West 207 238 16,000  Level Minneapolis Center
Sun 03:22:12 PM 47.6106 -97.9458 310° West 201 231 16,000  Level Minneapolis Center
Sun 03:23:14 PM 47.6475 -98.0139 309° West 204 235 16,000  Level Minneapolis Center
Sun 03:24:16 PM 47.6919 -98.0950 309° West 208 239 16,000 -244 Level Minneapolis Center
Sun 03:25:17 PM 47.7278 -98.1633 308° West 208 239 15,500 -780 Descending Minneapolis Center
Sun 03:26:19 PM 47.7658 -98.2372 307° West 214 246 14,400 -1,171 Descending Minneapolis Center
Sun 03:27:20 PM 47.8061 -98.3114 309° West 223 257 13,100 -1,268 Descending Minneapolis Center
Sun 03:28:22 PM 47.8433 -98.3839 307° West 224 258 11,800 -1,366 Descending Minneapolis Center
Sun 03:29:23 PM 47.8761 -98.4625 302° West 224 258 10,300 -1,475 Descending Minneapolis Center
Sun 03:31:00 PM 47.9332 -98.5607 309° West  Level FlightAware Approximate
Sun 03:38:00 PM 48.1000 -98.9000 270° West  Level FlightAware Approximate
Sun 03:39:00 PM 48.1166 -98.9100 270° West  Level Estimated
Sun 03:40:00 PM 48.1166 -98.9100 270° West  Level Estimated
Sun 03:41:00 PM 48.1166 -98.9100 270° West  Level Estimated
Sun 03:42:00 PM 48.1166 -98.9100 270° West  Level Estimated

Login

Don't have an account? Register now (free) for customized features, flight alerts, and more!